Lykes Provider — VQIV9 — position and weather

sailwx.info

Track history (hours):
 
Tides and Currents Weather Stations Pressure Air Temp Water Temp Dewpoint Dewpoint Depression Visibility Wind Speed Wind Dir Waves Ship Positions

Lykes Provider

Last reported at 2015-May-03 15:22 UTC. Time now 2015-May-06 15:32 UTC.
Position N 22°06' E 114°20'.

Length 260 m; draft 11.3 m.

Type: Ship (hazmat cat C). MMSI: 235645000.

Date/timePositionNaut miles runAvg speedWind from/ knotsBaromVisibWave heightAir tempDewpointWater temp
2015-May-03 15:22N 22°06' E 114°20'1612.3
2015-May-03 14:03N 22°16' E 114°06'610.0
2015-May-03 13:26N 22°21' E 114°03'910.1
2015-May-03 12:33N 22°24' E 113°53'3 2.5
2015-May-03 11:23N 22°27' E 113°53'0 0.1
2015-May-03 10:23N 22°27' E 113°53'0 0.1
2015-May-03 09:29N 22°27' E 113°53'0 0.0
2015-May-03 08:29N 22°27' E 113°53'0 0.1
2015-May-03 07:29N 22°27' E 113°53'0 0.0
2015-May-03 06:28N 22°27' E 113°53'0 0.0
2015-May-03 05:28N 22°27' E 113°53'0 0.0
2015-May-03 04:28N 22°27' E 113°53'0 0.0
2015-May-03 03:22N 22°27' E 113°53'3 4.3
2015-May-03 02:33N 22°23' E 113°54'11 9.9
2015-May-03 01:25N 22°19' E 114°05'16 8.3
2015-May-02 23:28N 22°09' E 114°18'1111.2
2015-May-02 22:29N 22°09' E 114°30'33813.0
2015-May-01 20:31N 24°56' E 119°50'30513.1
2015-Apr-30 21:21N 29°26' E 122°29'1312.6
2015-Apr-30 20:19N 29°38' E 122°25'1013.1
2015-Apr-30 19:33N 29°46' E 122°17'10 9.7
2015-Apr-30 18:34N 29°49' E 122°07'6 5.0
2015-Apr-30 17:25N 29°46' E 122°00'0 0.0
2015-Apr-30 16:25N 29°46' E 122°00'0 0.0
2015-Apr-30 15:25N 29°46' E 122°00'0 0.0
2015-Apr-30 11:25N 29°46' E 122°00'0 0.0
2015-Apr-30 10:18N 29°46' E 122°00'0 0.0
2015-Apr-30 09:30N 29°46' E 122°00'0 0.0
2015-Apr-30 08:06N 29°46' E 122°00'0 0.0
2015-Apr-30 07:12N 29°46' E 122°00'0 0.0
2015-Apr-30 06:18N 29°46' E 122°00'3 3.4
2015-Apr-30 05:32N 29°47' E 122°03'9 9.6
2015-Apr-30 04:33N 29°49' E 122°14'9 9.1
2015-Apr-30 03:33N 29°44' E 122°23'9 9.0
2015-Apr-30 02:33N 29°45' E 122°33'1211.4
2015-Apr-30 01:31N 29°50' E 122°46'7711.1
2015-Apr-29 18:33N 31°06' E 122°28'1211.9
2015-Apr-29 17:33N 31°08' E 122°15'1514.7
2015-Apr-29 16:33N 31°15' E 121°59'1514.7
2015-Apr-29 15:33N 31°19' E 121°43'7 6.9
2015-Apr-29 14:32N 31°22' E 121°35'0 0.1
2015-Apr-29 13:32N 31°22' E 121°35'0 0.0
2015-Apr-29 12:32N 31°22' E 121°35'0 0.0
2015-Apr-29 11:32N 31°22' E 121°35'0 0.0
2015-Apr-29 10:31N 31°22' E 121°35'0 0.0
2015-Apr-29 09:31N 31°22' E 121°35'0 0.0
2015-Apr-29 08:28N 31°22' E 121°35'0 0.0
2015-Apr-29 07:31N 31°22' E 121°35'0 0.0
2015-Apr-29 06:31N 31°22' E 121°35'0 0.0
2015-Apr-29 05:31N 31°22' E 121°35'0 0.0
2015-Apr-29 04:25N 31°22' E 121°35'0 0.0
2015-Apr-29 03:31N 31°22' E 121°35'0 0.0
2015-Apr-29 02:31N 31°22' E 121°35'0 0.0
2015-Apr-29 01:31N 31°22' E 121°35'4 3.8
2015-Apr-29 00:33N 31°21' E 121°39'1110.7
2015-Apr-28 23:33N 31°17' E 121°51'1211.9
2015-Apr-28 22:33N 31°14' E 122°04'10 9.8
2015-Apr-28 21:33N 31°09' E 122°14'8 7.9
2015-Apr-28 20:33N 31°06' E 122°23'7 7.4
2015-Apr-28 19:33N 31°07' E 122°31'9 8.7
2015-Apr-28 18:33N 31°06' E 122°42'  
2015-Apr-24 20:28N 31°46' E 126°43'2613.5
2015-Apr-24 18:32N 31°23' E 126°30'1713.5
2015-Apr-24 17:16N 31°07' E 126°22'  
Track history (hours):
 
Tides and Currents Weather Stations Pressure Air Temp Water Temp Dewpoint Dewpoint Depression Visibility Wind Speed Wind Dir Waves Ship Positions

Lykes Provider

Last reported at 2015-May-03 15:22 UTC. Time now 2015-May-06 15:32 UTC.
Position N 22°06' E 114°20'.

Length 260 m; draft 11.3 m.

Type: Ship (hazmat cat C). MMSI: 235645000.

Date/timePositionNaut miles runAvg speedWind from/ knotsBaromVisibWave heightAir tempDewpointWater temp
2015-May-03 15:22N 22°06' E 114°20'1612.3
2015-May-03 14:03N 22°16' E 114°06'610.0
2015-May-03 13:26N 22°21' E 114°03'910.1
2015-May-03 12:33N 22°24' E 113°53'3 2.5
2015-May-03 11:23N 22°27' E 113°53'0 0.1
2015-May-03 10:23N 22°27' E 113°53'0 0.1
2015-May-03 09:29N 22°27' E 113°53'0 0.0
2015-May-03 08:29N 22°27' E 113°53'0 0.1
2015-May-03 07:29N 22°27' E 113°53'0 0.0
2015-May-03 06:28N 22°27' E 113°53'0 0.0
2015-May-03 05:28N 22°27' E 113°53'0 0.0
2015-May-03 04:28N 22°27' E 113°53'0 0.0
2015-May-03 03:22N 22°27' E 113°53'3 4.3
2015-May-03 02:33N 22°23' E 113°54'11 9.9
2015-May-03 01:25N 22°19' E 114°05'16 8.3
2015-May-02 23:28N 22°09' E 114°18'1111.2
2015-May-02 22:29N 22°09' E 114°30'33813.0
2015-May-01 20:31N 24°56' E 119°50'30513.1
2015-Apr-30 21:21N 29°26' E 122°29'1312.6
2015-Apr-30 20:19N 29°38' E 122°25'1013.1
2015-Apr-30 19:33N 29°46' E 122°17'10 9.7
2015-Apr-30 18:34N 29°49' E 122°07'6 5.0
2015-Apr-30 17:25N 29°46' E 122°00'0 0.0
2015-Apr-30 16:25N 29°46' E 122°00'0 0.0
2015-Apr-30 15:25N 29°46' E 122°00'0 0.0
2015-Apr-30 11:25N 29°46' E 122°00'0 0.0
2015-Apr-30 10:18N 29°46' E 122°00'0 0.0
2015-Apr-30 09:30N 29°46' E 122°00'0 0.0
2015-Apr-30 08:06N 29°46' E 122°00'0 0.0
2015-Apr-30 07:12N 29°46' E 122°00'0 0.0
2015-Apr-30 06:18N 29°46' E 122°00'3 3.4
2015-Apr-30 05:32N 29°47' E 122°03'9 9.6
2015-Apr-30 04:33N 29°49' E 122°14'9 9.1
2015-Apr-30 03:33N 29°44' E 122°23'9 9.0
2015-Apr-30 02:33N 29°45' E 122°33'1211.4
2015-Apr-30 01:31N 29°50' E 122°46'7711.1
2015-Apr-29 18:33N 31°06' E 122°28'1211.9
2015-Apr-29 17:33N 31°08' E 122°15'1514.7
2015-Apr-29 16:33N 31°15' E 121°59'1514.7
2015-Apr-29 15:33N 31°19' E 121°43'7 6.9
2015-Apr-29 14:32N 31°22' E 121°35'0 0.1
2015-Apr-29 13:32N 31°22' E 121°35'0 0.0
2015-Apr-29 12:32N 31°22' E 121°35'0 0.0
2015-Apr-29 11:32N 31°22' E 121°35'0 0.0
2015-Apr-29 10:31N 31°22' E 121°35'0 0.0
2015-Apr-29 09:31N 31°22' E 121°35'0 0.0
2015-Apr-29 08:28N 31°22' E 121°35'0 0.0
2015-Apr-29 07:31N 31°22' E 121°35'0 0.0
2015-Apr-29 06:31N 31°22' E 121°35'0 0.0
2015-Apr-29 05:31N 31°22' E 121°35'0 0.0
2015-Apr-29 04:25N 31°22' E 121°35'0 0.0
2015-Apr-29 03:31N 31°22' E 121°35'0 0.0
2015-Apr-29 02:31N 31°22' E 121°35'0 0.0
2015-Apr-29 01:31N 31°22' E 121°35'4 3.8
2015-Apr-29 00:33N 31°21' E 121°39'1110.7
2015-Apr-28 23:33N 31°17' E 121°51'1211.9
2015-Apr-28 22:33N 31°14' E 122°04'10 9.8
2015-Apr-28 21:33N 31°09' E 122°14'8 7.9
2015-Apr-28 20:33N 31°06' E 122°23'7 7.4
2015-Apr-28 19:33N 31°07' E 122°31'9 8.7
2015-Apr-28 18:33N 31°06' E 122°42'  
2015-Apr-24 20:28N 31°46' E 126°43'2613.5
2015-Apr-24 18:32N 31°23' E 126°30'1713.5
2015-Apr-24 17:16N 31°07' E 126°22'  

Dump ship's entire track history